Time;durP1;ratioP1;P1;durP2;ratioP2;P2;SDS_P1;SDS_P2;PMS_P1;PMS_P2;Temp;Humidity;BMP_temperature;BMP_pressure;BME280_temperature;BME280_humidity;BME280_pressure;Samples;Min_cycle;Max_cycle;Signal;HPM_P1;HPM_P2
2021/09/21 00:00:20;;;;;;;7.82;5.93;;;;;;;19.40;55.20;100112.06;5110864;28;20028;-22
2021/09/21 00:02:45;;;;;;;7.43;5.38;;;;;;;19.37;55.05;100108.00;5110887;28;20804;-22
2021/09/21 00:05:11;;;;;;;8.38;5.85;;;;;;;19.13;55.50;100090.78;5110747;28;20031;-22
2021/09/21 00:07:36;;;;;;;8.20;5.35;;;;;;;19.22;55.33;100106.16;5110605;28;20034;-22
2021/09/21 00:10:03;;;;;;;7.35;5.72;;;;;;;19.14;55.76;100109.41;5110847;28;20046;-22
2021/09/21 00:12:28;;;;;;;7.50;5.57;;;;;;;19.08;55.88;100113.22;5110615;28;20034;-22
2021/09/21 00:14:54;;;;;;;8.10;4.85;;;;;;;19.05;54.87;100102.97;5091308;28;20036;-22
2021/09/21 00:17:19;;;;;;;9.43;6.18;;;;;;;19.07;54.63;100103.50;5110656;28;20032;-22
2021/09/21 00:19:45;;;;;;;8.05;5.45;;;;;;;19.04;54.50;100109.44;5110630;28;20027;-22
2021/09/21 00:22:10;;;;;;;7.65;5.85;;;;;;;19.01;54.63;100102.72;5110414;28;20032;-22
2021/09/21 00:24:36;;;;;;;8.57;5.57;;;;;;;18.95;54.35;100101.09;5110012;28;20075;-22
2021/09/21 00:27:01;;;;;;;8.43;5.50;;;;;;;19.02;54.09;100100.81;5110338;28;20088;-22
2021/09/21 00:29:27;;;;;;;8.15;5.78;;;;;;;19.22;54.01;100100.75;5110308;28;20509;-22
2021/09/21 00:31:59;;;;;;;8.23;6.15;;;;;;;19.38;53.43;100120.44;5110122;28;20089;-22
2021/09/21 00:34:27;;;;;;;8.55;6.15;;;;;;;19.18;53.83;100132.13;5109935;28;20055;-22
2021/09/21 00:36:53;;;;;;;10.23;6.32;;;;;;;18.97;54.56;100120.56;5109873;28;20024;-22
2021/09/21 00:39:19;;;;;;;8.40;6.35;;;;;;;18.99;54.88;100104.06;5110014;28;20767;-22
2021/09/21 00:41:44;;;;;;;11.65;6.50;;;;;;;19.12;53.81;100117.00;5110112;28;20035;-22
2021/09/21 00:44:10;;;;;;;8.27;5.53;;;;;;;18.98;53.76;100110.53;5091897;28;20482;-22
2021/09/21 00:46:35;;;;;;;7.97;5.32;;;;;;;19.06;53.12;100120.78;5109800;28;20027;-22
2021/09/21 00:49:01;;;;;;;7.95;5.60;;;;;;;19.03;53.40;100129.47;5110029;28;20045;-23
2021/09/21 00:51:26;;;;;;;8.32;5.68;;;;;;;19.10;52.85;100137.28;5091602;28;20027;-23
2021/09/21 00:53:53;;;;;;;8.80;6.05;;;;;;;19.16;52.67;100131.59;5091911;28;20447;-23
2021/09/21 00:56:18;;;;;;;7.60;5.63;;;;;;;19.33;51.95;100146.69;5110147;28;20123;-22
2021/09/21 00:58:44;;;;;;;10.23;5.82;;;;;;;19.41;51.99;100135.28;5109915;28;20059;-22
2021/09/21 01:01:09;;;;;;;8.85;5.72;;;;;;;19.52;51.39;100144.19;5109705;28;20035;-22
2021/09/21 01:03:34;;;;;;;8.75;5.75;;;;;;;19.48;52.69;100147.44;5109759;28;20035;-22
2021/09/21 01:06:00;;;;;;;8.57;5.75;;;;;;;19.55;51.90;100149.03;5091448;28;20034;-22
2021/09/21 01:08:27;;;;;;;7.65;5.47;;;;;;;19.44;52.41;100126.66;5109664;28;20434;-22
2021/09/21 01:10:52;;;;;;;11.18;6.55;;;;;;;19.74;51.57;100135.75;5109567;28;20024;-22
2021/09/21 01:13:18;;;;;;;8.18;5.80;;;;;;;19.41;52.53;100130.72;5109470;28;20028;-22
2021/09/21 01:15:43;;;;;;;8.88;6.40;;;;;;;19.35;52.04;100136.41;5109666;28;20487;-22
2021/09/21 01:18:09;;;;;;;8.85;6.00;;;;;;;18.90;53.20;100141.66;5109497;28;20035;-22
2021/09/21 01:20:34;;;;;;;8.70;6.45;;;;;;;18.83;54.70;100146.50;5109131;28;20031;-22
2021/09/21 01:23:03;;;;;;;8.95;6.43;;;;;;;18.66;55.06;100144.06;5109501;28;20047;-22
2021/09/21 01:25:28;;;;;;;8.05;5.82;;;;;;;18.73;53.87;100157.28;5109439;28;20027;-22
2021/09/21 01:27:54;;;;;;;9.15;6.35;;;;;;;19.12;54.21;100164.84;5109122;28;20046;-22
2021/09/21 01:30:19;;;;;;;8.05;5.45;;;;;;;19.34;52.81;100167.25;5091103;28;20430;-23
2021/09/21 01:32:45;;;;;;;8.63;6.45;;;;;;;19.00;53.31;100184.06;5108951;28;20063;-22
2021/09/21 01:35:12;;;;;;;8.93;6.13;;;;;;;18.70;53.95;100171.34;5109829;28;20032;-22
2021/09/21 01:37:39;;;;;;;10.02;5.85;;;;;;;18.97;53.29;100166.50;5109509;28;20088;-22
2021/09/21 01:40:05;;;;;;;9.63;6.13;;;;;;;18.74;53.42;100175.13;5091086;28;20024;-22
2021/09/21 01:42:31;;;;;;;10.07;6.47;;;;;;;18.54;54.22;100182.13;5109245;28;20180;-22
2021/09/21 01:44:56;;;;;;;9.05;6.53;;;;;;;18.36;54.26;100142.16;5109269;28;20478;-22
2021/09/21 01:47:22;;;;;;;9.38;6.05;;;;;;;18.35;55.32;100173.75;5109245;28;20031;-22
2021/09/21 01:52:20;;;;;;;9.45;5.72;;;;;;;18.22;54.40;100161.56;5109120;28;20034;-22
2021/09/21 01:55:10;;;;;;;8.27;5.55;;;;;;;17.94;54.90;100173.66;5108981;28;20023;-22
2021/09/21 02:00:20;;;;;;;9.32;5.90;;;;;;;17.82;55.33;100176.56;5109141;28;20126;-22
2021/09/21 02:02:45;;;;;;;9.68;6.03;;;;;;;17.88;54.86;100161.22;5108831;28;20035;-22
2021/09/21 02:05:11;;;;;;;8.25;6.10;;;;;;;17.86;54.94;100160.69;5109016;28;20044;-22
2021/09/21 02:07:36;;;;;;;8.98;5.40;;;;;;;17.65;55.16;100159.75;5108956;28;20040;-23
2021/09/21 02:10:02;;;;;;;8.75;5.15;;;;;;;17.74;55.05;100163.56;5109067;28;20483;-22
2021/09/21 02:12:28;;;;;;;9.15;5.65;;;;;;;17.82;54.39;100171.16;5108979;28;20046;-22
2021/09/21 02:14:57;;;;;;;8.55;5.72;;;;;;;18.06;54.20;100176.09;5090640;28;20024;-22
2021/09/21 02:17:23;;;;;;;8.60;5.28;;;;;;;17.79;53.93;100168.16;5108850;28;20467;-22
2021/09/21 02:19:48;;;;;;;9.18;5.43;;;;;;;17.64;53.96;100152.75;5109251;28;20023;-22
2021/09/21 02:22:14;;;;;;;9.52;5.85;;;;;;;17.51;54.39;100148.66;5108904;28;20398;-22
2021/09/21 02:24:39;;;;;;;8.27;6.05;;;;;;;17.64;54.29;100168.94;5108539;28;20031;-22
2021/09/21 02:27:05;;;;;;;8.90;5.68;;;;;;;17.68;54.35;100178.91;5108807;28;20039;-22
2021/09/21 02:29:30;;;;;;;10.40;5.63;;;;;;;17.82;53.71;100186.53;5108711;28;20023;-22
2021/09/21 02:31:56;;;;;;;8.35;5.40;;;;;;;17.69;54.14;100177.03;5108669;28;20179;-22
2021/09/21 02:34:21;;;;;;;8.57;5.68;;;;;;;17.55;54.94;100170.50;5108905;28;20425;-22
2021/09/21 02:36:46;;;;;;;9.85;5.57;;;;;;;17.56;54.58;100186.41;5108702;28;20039;-22
2021/09/21 02:39:12;;;;;;;9.07;5.53;;;;;;;17.36;54.49;100173.63;5111292;28;20034;-22
2021/09/21 02:41:38;;;;;;;8.70;5.70;;;;;;;17.50;54.24;100195.56;5112411;28;20038;-22
2021/09/21 02:44:03;;;;;;;8.30;5.35;;;;;;;17.31;54.03;100195.19;5112249;28;20035;-22
2021/09/21 02:46:29;;;;;;;8.50;5.18;;;;;;;17.27;54.10;100197.56;5112373;28;20106;-22
2021/09/21 02:48:54;;;;;;;8.35;5.10;;;;;;;17.18;54.19;100193.75;5111927;28;20070;-22
2021/09/21 02:51:20;;;;;;;8.73;5.55;;;;;;;17.04;54.59;100185.31;5112082;28;20030;-22
2021/09/21 02:53:45;;;;;;;13.50;5.57;;;;;;;17.05;54.46;100196.88;5112205;28;20465;-22
2021/09/21 02:56:14;;;;;;;8.70;5.40;;;;;;;16.93;54.51;100185.47;5112172;28;20110;-22
2021/09/21 02:58:40;;;;;;;10.23;5.72;;;;;;;16.92;54.54;100208.09;5111648;28;20050;-22
2021/09/21 03:01:05;;;;;;;9.73;5.85;;;;;;;17.11;55.05;100214.72;5112158;28;20467;-22
2021/09/21 03:03:34;;;;;;;8.90;5.07;;;;;;;16.99;53.94;100211.38;5093716;28;20036;-22
2021/09/21 03:06:04;;;;;;;8.70;4.70;;;;;;;16.91;54.68;100220.75;5111903;28;20088;-22
2021/09/21 03:08:32;;;;;;;10.45;5.13;;;;;;;17.09;54.28;100224.94;5111891;28;20058;-22
2021/09/21 03:19:09;;;;;;;9.18;5.82;;;;;;;16.76;55.50;100229.50;5048767;28;20032;-22
2021/09/21 03:21:34;;;;;;;10.23;5.53;;;;;;;16.68;55.20;100214.59;5048867;28;20029;-22
2021/09/21 03:24:00;;;;;;;10.30;6.05;;;;;;;16.55;55.52;100222.28;5077716;28;20105;-22
2021/09/21 03:26:25;;;;;;;9.95;5.85;;;;;;;16.48;55.42;100201.75;5111710;28;20096;-22
2021/09/21 03:28:51;;;;;;;9.07;5.38;;;;;;;16.62;55.17;100217.50;5111292;28;20039;-22
2021/09/21 03:31:16;;;;;;;9.18;5.82;;;;;;;16.52;55.38;100228.19;5111401;28;20035;-22
2021/09/21 03:33:42;;;;;;;9.60;5.80;;;;;;;16.58;55.33;100227.16;5111268;28;20067;-22
2021/09/21 03:36:07;;;;;;;10.93;5.85;;;;;;;16.70;55.16;100213.56;5110784;28;20031;-22
2021/09/21 03:38:33;;;;;;;8.73;5.22;;;;;;;17.04;54.15;100235.66;5111189;28;20940;-22
2021/09/21 03:40:58;;;;;;;10.32;5.93;;;;;;;16.51;55.33;100229.25;5111303;28;20467;-22
2021/09/21 03:43:24;;;;;;;10.90;5.60;;;;;;;16.42;55.58;100223.50;5111447;28;20040;-22
2021/09/21 03:45:49;;;;;;;10.48;5.45;;;;;;;16.22;56.21;100216.84;5111143;28;20031;-22
2021/09/21 03:48:15;;;;;;;9.88;5.60;;;;;;;16.13;56.55;100220.25;5111150;28;20027;-22
2021/09/21 03:50:40;;;;;;;10.75;6.65;;;;;;;16.20;56.75;100237.81;5110682;28;20020;-22
2021/09/21 03:53:06;;;;;;;10.18;6.70;;;;;;;16.12;56.78;100245.50;5111053;28;20028;-22
2021/09/21 03:55:31;;;;;;;10.88;5.85;;;;;;;16.03;56.53;100221.72;5111181;28;20483;-22
2021/09/21 03:57:57;;;;;;;11.65;5.78;;;;;;;16.27;56.73;100256.47;5111067;28;20039;-22
2021/09/21 04:00:22;;;;;;;10.02;5.53;;;;;;;16.23;56.49;100252.66;5110966;28;20088;-22
2021/09/21 04:02:48;;;;;;;12.13;6.35;;;;;;;16.36;56.09;100252.25;5110807;28;20027;-22
2021/09/21 04:05:13;;;;;;;10.80;6.07;;;;;;;16.43;55.66;100255.56;5110681;28;20027;-22
2021/09/21 04:07:39;;;;;;;10.00;6.25;;;;;;;16.54;55.60;100278.00;5110893;28;20406;-22
2021/09/21 04:10:05;;;;;;;9.93;5.70;;;;;;;16.48;55.65;100285.22;5110731;28;20062;-22
2021/09/21 04:12:31;;;;;;;10.70;6.13;;;;;;;16.30;56.15;100288.22;5110474;28;20717;-22
2021/09/21 04:14:56;;;;;;;9.52;5.65;;;;;;;16.44;55.51;100294.03;5110522;28;20035;-22
2021/09/21 04:17:21;;;;;;;11.95;6.53;;;;;;;16.57;54.61;100280.22;5110584;28;20036;-22
2021/09/21 04:19:47;;;;;;;11.35;6.75;;;;;;;16.71;54.40;100287.88;5110870;28;20028;-22
2021/09/21 04:22:12;;;;;;;12.43;6.80;;;;;;;16.38;55.33;100279.72;5110342;28;20035;-22
2021/09/21 04:24:38;;;;;;;9.57;6.20;;;;;;;16.35;55.89;100282.91;5110284;28;20512;-22
2021/09/21 04:27:04;;;;;;;10.43;6.10;;;;;;;16.20;55.94;100277.34;5110230;28;20031;-22
2021/09/21 04:29:30;;;;;;;13.27;7.00;;;;;;;16.17;56.20;100285.94;5110363;28;20501;-22
2021/09/21 04:31:59;;;;;;;10.40;6.28;;;;;;;16.16;56.32;100285.13;5110112;28;20040;-22
2021/09/21 04:34:24;;;;;;;10.77;6.43;;;;;;;16.12;56.41;100277.78;5109995;28;20051;-22
2021/09/21 04:36:50;;;;;;;11.93;6.38;;;;;;;15.97;56.91;100281.09;5110223;28;20501;-22
2021/09/21 04:39:15;;;;;;;11.15;6.43;;;;;;;16.04;56.89;100296.00;5110373;28;20035;-22
2021/09/21 04:41:41;;;;;;;12.05;6.95;;;;;;;16.18;56.63;100295.63;5110069;28;20060;-22
2021/09/21 04:44:07;;;;;;;12.60;6.00;;;;;;;16.32;55.91;100294.19;5110040;28;20046;-22
2021/09/21 04:46:35;;;;;;;12.38;6.75;;;;;;;16.28;56.37;100319.97;5109792;28;20103;-22
2021/09/21 04:49:01;;;;;;;;;;;;;;;16.33;56.10;100325.41;5110366;28;20471;-22
2021/09/21 04:51:28;;;;;;;13.82;7.75;;;;;;;16.29;56.57;100307.34;5109830;28;19911;-22
2021/09/21 04:53:54;;;;;;;13.38;7.78;;;;;;;16.57;56.29;100317.06;5109853;28;20039;-22
2021/09/21 04:56:19;;;;;;;11.63;7.13;;;;;;;16.67;55.28;100336.03;5109723;28;20027;-22
2021/09/21 04:58:45;;;;;;;13.27;7.45;;;;;;;16.58;55.41;100341.06;5109524;28;20024;-22
2021/09/21 05:01:10;;;;;;;11.05;6.80;;;;;;;16.75;54.58;100340.16;5109312;28;20031;-22
2021/09/21 05:03:36;;;;;;;12.13;7.18;;;;;;;16.93;54.32;100352.50;5109999;28;20453;-22
2021/09/21 05:06:01;;;;;;;11.70;6.80;;;;;;;17.19;53.62;100356.25;5109761;28;20072;-22
2021/09/21 05:08:26;;;;;;;14.23;7.47;;;;;;;17.09;53.87;100356.97;5109642;28;20028;-22
2021/09/21 05:10:52;;;;;;;11.88;7.10;;;;;;;16.99;54.41;100340.72;5109186;28;20034;-22
2021/09/21 05:13:17;;;;;;;11.00;6.03;;;;;;;17.04;54.10;100365.81;5109626;28;20030;-22
2021/09/21 05:15:45;;;;;;;11.32;6.65;;;;;;;16.97;54.16;100338.25;5109515;28;20035;-22
2021/09/21 05:18:10;;;;;;;11.67;7.07;;;;;;;16.85;54.67;100367.22;5109367;28;20114;-22
2021/09/21 05:20:36;;;;;;;11.50;6.80;;;;;;;16.99;54.42;100359.56;5109431;28;20686;-22
2021/09/21 05:23:02;;;;;;;13.65;7.32;;;;;;;16.97;54.57;100369.78;5109775;28;20042;-23
2021/09/21 05:25:27;;;;;;;13.10;7.50;;;;;;;17.12;54.22;100361.88;5109627;28;20027;-22
2021/09/21 05:27:53;;;;;;;14.38;7.40;;;;;;;16.87;54.69;100360.50;5109504;28;20459;-22
2021/09/21 05:30:19;;;;;;;10.60;6.10;;;;;;;17.04;54.22;100360.44;5109394;28;20716;-22
2021/09/21 05:32:45;;;;;;;12.15;6.68;;;;;;;17.25;53.72;100350.66;5108629;28;20028;-22
2021/09/21 05:35:11;;;;;;;10.70;5.20;;;;;;;17.34;53.53;100351.00;5109422;28;20110;-22
2021/09/21 05:37:37;;;;;;;10.85;6.65;;;;;;;17.50;53.11;100383.47;5109300;28;20031;-22
2021/09/21 05:40:04;;;;;;;11.35;6.53;;;;;;;17.59;52.54;100382.75;5109236;28;20024;-22
2021/09/21 05:42:29;;;;;;;8.80;5.80;;;;;;;17.48;52.72;100387.25;5109313;28;20138;-22
2021/09/21 05:44:55;;;;;;;12.02;6.82;;;;;;;17.85;52.39;100385.66;5109121;28;20031;-22
2021/09/21 05:47:20;;;;;;;9.73;6.18;;;;;;;17.82;51.49;100365.38;5109090;28;20035;-22
2021/09/21 05:49:46;;;;;;;11.13;6.85;;;;;;;17.91;51.66;100408.91;5109212;28;20031;-22
2021/09/21 05:52:11;;;;;;;10.25;6.25;;;;;;;17.90;51.12;100401.91;5109194;28;20036;-22
2021/09/21 05:54:37;;;;;;;23.58;13.55;;;;;;;18.14;52.06;100420.38;5108874;28;20028;-21
2021/09/21 05:57:02;;;;;;;36.15;22.83;;;;;;;18.58;52.21;100409.28;5109353;28;20124;-22
2021/09/21 05:59:28;;;;;;;13.20;6.65;;;;;;;18.60;49.87;100417.94;5109049;28;20483;-22
2021/09/21 06:01:54;;;;;;;11.88;6.55;;;;;;;18.63;49.62;100428.22;5109032;28;20466;-22
2021/09/21 06:04:19;;;;;;;12.23;7.68;;;;;;;18.73;49.67;100422.84;5109256;28;20027;-22
2021/09/21 06:06:45;;;;;;;13.85;8.30;;;;;;;18.74;49.09;100423.69;5109054;28;20028;-22
2021/09/21 06:09:10;;;;;;;9.68;6.10;;;;;;;19.06;48.25;100420.81;5108981;28;20051;-22
2021/09/21 06:11:37;;;;;;;8.60;5.15;;;;;;;18.94;48.02;100418.38;5108819;28;20024;-23
2021/09/21 06:14:02;;;;;;;10.57;5.95;;;;;;;18.95;48.23;100421.88;5110879;28;20571;-22
2021/09/21 06:16:28;;;;;;;9.52;5.93;;;;;;;18.93;47.36;100426.75;5113021;28;20028;-22
2021/09/21 06:18:54;;;;;;;10.32;5.43;;;;;;;18.76;47.20;100443.94;5094462;28;20401;-23
2021/09/21 06:21:20;;;;;;;9.30;5.07;;;;;;;18.85;47.44;100434.28;5112735;28;20110;-22
2021/09/21 06:23:45;;;;;;;9.13;5.30;;;;;;;18.59;46.93;100424.41;5112800;28;20032;-22
2021/09/21 06:26:11;;;;;;;8.93;5.18;;;;;;;18.71;47.12;100440.41;5112665;28;20031;-22
2021/09/21 06:28:36;;;;;;;8.15;5.32;;;;;;;18.51;47.17;100433.84;5112485;28;20506;-21
2021/09/21 06:31:02;;;;;;;9.05;5.25;;;;;;;18.55;47.62;100436.81;5112184;28;20023;-22
2021/09/21 06:33:27;;;;;;;8.88;5.25;;;;;;;18.40;46.88;100435.66;5112429;28;20514;-22
2021/09/21 06:35:53;;;;;;;8.68;5.38;;;;;;;18.52;47.01;100427.34;5112376;28;20024;-22
2021/09/21 06:38:18;;;;;;;9.10;5.60;;;;;;;18.40;47.06;100440.25;5112430;28;20038;-22
2021/09/21 06:40:44;;;;;;;11.68;6.40;;;;;;;18.53;47.17;100455.16;5112324;28;20027;-22
2021/09/21 06:43:09;;;;;;;11.10;5.78;;;;;;;18.66;47.17;100446.59;5112534;28;20036;-22
2021/09/21 06:45:35;;;;;;;8.45;4.97;;;;;;;18.72;46.80;100456.38;5112489;28;20418;-22
2021/09/21 06:48:00;;;;;;;9.27;5.53;;;;;;;18.93;46.17;100459.19;5112230;28;20112;-22
2021/09/21 06:50:25;;;;;;;8.98;5.30;;;;;;;19.13;45.82;100437.63;5112574;28;20489;-22
2021/09/21 06:52:51;;;;;;;13.43;5.97;;;;;;;19.63;45.47;100463.09;5111762;28;20031;-22
2021/09/21 06:55:16;;;;;;;7.78;4.80;;;;;;;19.00;45.57;100460.56;5112497;28;20031;-22
2021/09/21 06:57:50;;;;;;;8.75;4.78;;;;;;;19.12;45.85;100462.19;5112127;28;20419;-23
2021/09/21 07:00:16;;;;;;;10.18;5.60;;;;;;;19.18;45.33;100459.25;5112027;28;20023;-22
2021/09/21 07:02:46;;;;;;;8.25;5.05;;;;;;;19.39;45.29;100473.63;5111749;28;20111;-22
2021/09/21 07:05:12;;;;;;;8.38;4.90;;;;;;;19.77;44.31;100478.84;5112079;28;20031;-22
2021/09/21 07:07:43;;;;;;;6.82;4.65;;;;;;;19.68;44.59;100484.75;5111837;28;20023;-22
2021/09/21 07:10:08;;;;;;;9.23;5.25;;;;;;;19.51;44.55;100486.88;5093804;28;20042;-22
2021/09/21 07:12:34;;;;;;;8.30;5.30;;;;;;;19.70;43.92;100481.00;5111727;28;20032;-22
2021/09/21 07:14:59;;;;;;;9.00;5.60;;;;;;;19.48;44.34;100482.03;5111726;28;20027;-22
2021/09/21 07:17:25;;;;;;;7.20;4.75;;;;;;;19.60;43.29;100476.38;5111750;28;20054;-22
2021/09/21 07:19:50;;;;;;;9.32;4.90;;;;;;;19.45;43.79;100479.84;5111539;28;20027;-23
2021/09/21 07:22:16;;;;;;;8.32;4.93;;;;;;;19.80;42.73;100489.16;5111613;28;20440;-22
2021/09/21 07:24:41;;;;;;;7.75;4.40;;;;;;;19.79;43.42;100482.91;5111018;28;20510;-22
2021/09/21 07:27:07;;;;;;;9.30;5.30;;;;;;;19.84;43.48;100482.13;5111497;28;20046;-22
2021/09/21 07:29:32;;;;;;;10.90;5.18;;;;;;;20.09;42.45;100502.94;5111372;28;20445;-22
2021/09/21 07:31:58;;;;;;;8.13;5.07;;;;;;;19.97;42.36;100495.09;5111189;28;20043;-22
2021/09/21 07:34:23;;;;;;;11.30;5.35;;;;;;;19.99;42.67;100502.94;5111319;28;20055;-22
2021/09/21 07:36:52;;;;;;;7.40;4.55;;;;;;;20.20;41.81;100499.13;5111052;28;20023;-22
2021/09/21 07:39:18;;;;;;;7.68;4.45;;;;;;;20.11;42.09;100481.03;5111351;28;20040;-22
2021/09/21 07:41:44;;;;;;;9.20;5.03;;;;;;;20.19;42.62;100512.97;5111176;28;20055;-22
2021/09/21 07:44:09;;;;;;;7.80;4.30;;;;;;;19.96;42.76;100517.84;5110983;28;20059;-23
2021/09/21 07:46:35;;;;;;;8.35;4.25;;;;;;;20.06;42.19;100514.31;5110948;28;20023;-22
2021/09/21 07:49:00;;;;;;;8.25;4.78;;;;;;;20.04;42.63;100517.31;5092703;28;20043;-22
2021/09/21 07:51:26;;;;;;;8.05;4.72;;;;;;;20.16;42.29;100513.50;5111496;28;20509;-22
2021/09/21 07:53:51;;;;;;;7.57;4.53;;;;;;;20.23;42.63;100514.84;5110892;28;20030;-22
2021/09/21 07:56:17;;;;;;;7.07;4.30;;;;;;;20.58;40.99;100517.78;5092640;28;20035;-22
2021/09/21 07:58:42;;;;;;;8.48;4.75;;;;;;;20.94;40.42;100523.91;5110509;28;20040;-22
2021/09/21 08:01:08;;;;;;;8.00;4.10;;;;;;;20.71;40.51;100514.50;5110730;28;20081;-22
2021/09/21 08:03:33;;;;;;;7.38;4.47;;;;;;;20.92;40.05;100545.06;5110844;28;20027;-22
2021/09/21 08:05:59;;;;;;;7.13;4.32;;;;;;;20.83;39.06;100544.81;5110841;28;20061;-22
2021/09/21 08:08:24;;;;;;;6.57;4.00;;;;;;;20.91;38.78;100546.16;5110837;28;20031;-22
2021/09/21 08:10:50;;;;;;;5.85;3.97;;;;;;;21.09;38.64;100552.88;5110324;28;20519;-22
2021/09/21 08:13:16;;;;;;;7.55;4.13;;;;;;;20.75;40.04;100553.53;5110445;28;20031;-22
2021/09/21 08:15:41;;;;;;;7.38;3.97;;;;;;;21.21;39.16;100550.66;5110470;28;20372;-22
2021/09/21 08:18:07;;;;;;;7.60;4.30;;;;;;;21.51;38.02;100554.34;5110809;28;20092;-22
2021/09/21 08:20:33;;;;;;;7.15;3.58;;;;;;;21.48;37.11;100551.41;5110295;28;20020;-22
2021/09/21 08:22:58;;;;;;;6.60;3.72;;;;;;;21.22;36.75;100563.13;5110396;28;20030;-22
2021/09/21 08:25:24;;;;;;;9.05;4.10;;;;;;;21.35;37.47;100563.63;5110486;28;20394;-22
2021/09/21 08:27:49;;;;;;;7.28;3.60;;;;;;;21.32;38.22;100550.63;5110295;28;20038;-29
2021/09/21 08:30:17;;;;;;;5.50;3.50;;;;;;;21.37;37.03;100556.00;5110464;28;20038;-22
2021/09/21 08:32:42;;;;;;;7.07;3.45;;;;;;;21.66;36.95;100543.41;5109768;28;20895;-22
2021/09/21 08:35:08;;;;;;;6.95;3.67;;;;;;;21.93;36.39;100544.84;5110333;28;20032;-22
2021/09/21 08:37:34;;;;;;;7.13;3.50;;;;;;;21.78;36.14;100547.66;5109394;28;20031;-22
2021/09/21 08:40:00;;;;;;;5.63;3.00;;;;;;;21.71;36.67;100536.31;5110167;28;20080;-22
2021/09/21 08:42:25;;;;;;;5.70;3.33;;;;;;;21.70;37.02;100542.81;5109892;28;20410;-22
2021/09/21 08:44:51;;;;;;;6.95;3.70;;;;;;;21.71;36.22;100525.47;5109854;28;20399;-22
2021/09/21 08:47:17;;;;;;;5.72;3.40;;;;;;;22.06;35.88;100522.47;5109971;28;20036;-23
2021/09/21 08:49:43;;;;;;;5.50;3.05;;;;;;;22.17;34.98;100533.22;5109777;28;20165;-22
2021/09/21 08:52:09;;;;;;;6.95;3.65;;;;;;;22.21;34.93;100545.16;5109888;28;20049;-22
2021/09/21 08:54:34;;;;;;;6.82;3.65;;;;;;;22.23;36.12;100538.38;5109645;28;20039;-22
2021/09/21 08:57:00;;;;;;;6.78;3.83;;;;;;;22.49;35.09;100540.06;5109726;28;20039;-22
2021/09/21 08:59:30;;;;;;;6.13;3.10;;;;;;;22.20;34.78;100521.81;5109610;28;20498;-22
2021/09/21 09:01:55;;;;;;;6.70;3.42;;;;;;;22.20;34.41;100516.38;5091438;28;20479;-22
2021/09/21 09:04:21;;;;;;;5.78;3.55;;;;;;;22.31;34.96;100550.53;5109811;28;20039;-22
2021/09/21 09:06:56;;;;;;;6.13;3.78;;;;;;;22.64;36.08;100538.00;5109521;28;20054;-22
2021/09/21 09:09:23;;;;;;;4.50;3.05;;;;;;;23.06;34.49;100538.34;5109535;28;20072;-22
2021/09/21 09:11:52;;;;;;;6.60;3.60;;;;;;;22.66;34.21;100529.56;5109629;28;20045;-22
2021/09/21 09:14:19;;;;;;;6.95;4.00;;;;;;;22.58;35.13;100532.91;5109579;28;20464;-22
2021/09/21 09:16:45;;;;;;;7.38;3.85;;;;;;;22.89;34.04;100544.25;5109134;28;20031;-22
2021/09/21 09:19:12;;;;;;;6.28;3.42;;;;;;;22.66;34.54;100524.91;5109436;28;20039;-22
2021/09/21 09:21:40;;;;;;;5.38;3.40;;;;;;;22.70;34.35;100513.44;5109373;28;20027;-22
2021/09/21 09:24:07;;;;;;;5.85;3.60;;;;;;;22.95;34.41;100540.38;5109382;28;20042;-22
2021/09/21 09:26:37;;;;;;;8.57;3.40;;;;;;;23.67;33.09;100534.81;5109147;28;20020;-22
2021/09/21 09:29:02;;;;;;;6.03;3.13;;;;;;;23.67;33.24;100526.63;5109244;28;20043;-22
2021/09/21 09:31:32;;;;;;;6.82;3.72;;;;;;;24.00;34.02;100534.88;5090859;28;20114;-22
2021/09/21 09:34:12;;;;;;;6.60;3.50;;;;;;;23.90;31.96;100528.78;5109486;28;20063;-22
2021/09/21 09:37:02;;;;;;;7.53;3.53;;;;;;;24.11;31.84;100521.06;5109005;28;20248;-22
2021/09/21 09:39:29;;;;;;;6.20;3.67;;;;;;;23.96;31.78;100522.94;5109183;28;20135;-22
2021/09/21 09:41:56;;;;;;;6.93;3.40;;;;;;;23.80;32.16;100510.69;5109173;28;20026;-22
2021/09/21 09:44:23;;;;;;;5.40;3.50;;;;;;;23.77;32.18;100530.34;5109454;28;20046;-22
2021/09/21 09:46:52;;;;;;;7.63;3.30;;;;;;;23.48;32.10;100517.69;5108903;28;20023;-22
2021/09/21 09:49:29;;;;;;;5.97;3.85;;;;;;;23.53;32.81;100517.59;5113483;28;20058;-22
2021/09/21 09:51:56;;;;;;;6.57;3.28;;;;;;;24.14;33.36;100506.88;5113291;28;20049;-22
2021/09/21 09:54:22;;;;;;;6.50;3.70;;;;;;;24.63;32.34;100508.97;5113435;28;20035;-22
2021/09/21 09:56:48;;;;;;;5.88;3.00;;;;;;;24.24;31.06;100506.69;5113031;28;20040;-22
2021/09/21 09:59:15;;;;;;;7.20;3.30;;;;;;;23.77;32.15;100478.59;5113148;28;20491;-22
2021/09/21 10:01:41;;;;;;;5.22;3.03;;;;;;;24.27;31.43;100487.00;5113151;28;20037;-22
2021/09/21 10:04:07;;;;;;;8.45;3.20;;;;;;;24.44;31.21;100500.88;5113168;28;20031;-22
2021/09/21 10:06:32;;;;;;;6.10;3.15;;;;;;;24.16;31.30;100499.19;5112800;28;20032;-22
2021/09/21 10:08:58;;;;;;;6.25;3.40;;;;;;;24.40;30.43;100478.03;5113362;28;20023;-22
2021/09/21 10:11:27;;;;;;;5.43;3.17;;;;;;;24.49;30.54;100486.31;5113036;28;20031;-22
2021/09/21 10:13:53;;;;;;;5.95;3.15;;;;;;;24.72;30.41;100481.78;5095009;28;20130;-22
2021/09/21 10:16:19;;;;;;;7.13;3.17;;;;;;;24.96;29.83;100467.94;5077924;28;20862;-22
2021/09/21 10:18:45;;;;;;;4.80;2.67;;;;;;;25.04;29.13;100491.78;5094936;28;20035;-22
2021/09/21 10:21:10;;;;;;;4.25;2.70;;;;;;;24.95;29.05;100488.16;5094543;28;20032;-22
2021/09/21 10:23:39;;;;;;;4.28;2.70;;;;;;;25.04;28.69;100486.31;5112794;28;20050;-22
2021/09/21 10:26:16;;;;;;;4.55;2.65;;;;;;;25.62;29.32;100473.88;5112870;28;20027;-22
2021/09/21 10:28:42;;;;;;;4.75;2.70;;;;;;;25.46;28.36;100464.44;5112413;28;20035;-22
2021/09/21 10:31:12;;;;;;;5.30;2.70;;;;;;;25.46;29.79;100491.72;5112571;28;20039;-22
2021/09/21 10:33:38;;;;;;;5.78;2.83;;;;;;;26.40;29.12;100480.94;5112136;28;20056;-22
2021/09/21 10:36:08;;;;;;;3.78;2.50;;;;;;;27.00;26.92;100487.75;5112526;28;20042;-22
2021/09/21 10:38:33;;;;;;;6.03;2.97;;;;;;;27.27;26.16;100486.66;5077998;28;20104;-22
2021/09/21 10:41:02;;;;;;;5.55;2.83;;;;;;;26.93;27.09;100479.19;5094116;28;20035;-22
2021/09/21 10:43:33;;;;;;;3.65;2.55;;;;;;;26.33;27.16;100469.63;5112402;28;20031;-22
2021/09/21 10:46:06;;;;;;;5.90;2.80;;;;;;;26.37;28.13;100476.88;5112575;28;20422;-22
2021/09/21 10:48:37;;;;;;;5.57;2.75;;;;;;;26.35;28.36;100451.00;5111992;28;20035;-22
2021/09/21 10:51:02;;;;;;;3.83;2.30;;;;;;;26.91;27.77;100451.31;5112195;28;20035;-22
2021/09/21 10:53:29;;;;;;;3.75;2.40;;;;;;;27.33;25.91;100484.59;5112304;28;20092;-22
2021/09/21 10:56:05;;;;;;;3.95;2.45;;;;;;;27.24;25.79;100473.63;5111974;28;20035;-22
2021/09/21 10:58:31;;;;;;;4.28;2.50;;;;;;;27.04;26.43;100472.28;5111976;28;20040;-22
2021/09/21 11:00:56;;;;;;;4.10;2.30;;;;;;;26.93;26.11;100474.53;5111476;28;20071;-22
2021/09/21 11:03:27;;;;;;;6.78;2.80;;;;;;;27.65;27.34;100466.84;5112120;28;20035;-22
2021/09/21 11:05:57;;;;;;;5.38;2.55;;;;;;;27.24;26.05;100449.78;5111847;28;20023;-22
2021/09/21 11:08:27;;;;;;;4.40;2.47;;;;;;;26.75;26.73;100449.06;5111873;28;20034;-22
2021/09/21 11:10:59;;;;;;;4.70;2.90;;;;;;;26.55;26.75;100435.94;5111595;28;20125;-22
2021/09/21 11:13:25;;;;;;;4.07;2.80;;;;;;;27.10;26.26;100449.09;5111680;28;20028;-22
2021/09/21 11:15:50;;;;;;;4.70;2.38;;;;;;;27.54;26.67;100447.19;5111711;28;20074;-22
2021/09/21 11:18:17;;;;;;;5.72;2.55;;;;;;;27.71;26.51;100442.84;5093667;28;20055;-22
2021/09/21 11:20:45;;;;;;;4.22;2.45;;;;;;;28.21;24.85;100450.47;5111677;28;20142;-22
2021/09/21 11:23:11;;;;;;;6.10;2.72;;;;;;;28.38;25.13;100446.81;5111729;28;20469;-22
2021/09/21 11:25:36;;;;;;;4.80;2.67;;;;;;;28.01;24.82;100441.81;5111539;28;20542;-22
2021/09/21 11:28:02;;;;;;;4.88;2.70;;;;;;;28.69;26.71;100445.72;5111381;28;20030;-22
2021/09/21 11:30:28;;;;;;;3.92;2.67;;;;;;;28.82;24.51;100440.00;5111089;28;20554;-22
2021/09/21 11:32:53;;;;;;;5.30;2.90;;;;;;;28.84;24.03;100445.97;5111002;28;20024;-22